Terminal Aerodrome Forecast
Issued by NWS Amarillo, TX

Home | Current Version | Previous Version | Text Only | Print | Product List | Glossary On
Versions: 1 2 3 4 5 6 7 8 9 10 11 12 13 14 15 16 17 18 19 20 21 22
000
FTUS44 KAMA 181100
TAFAMA
TAF
KAMA 181120Z 1812/1912 18010KT P6SM FEW012 OVC100
      TEMPO 1812/1815 5SM BR BKN010
     FM181500 16010KT P6SM OVC040=

USA.gov is the U.S. government's official web portal to all federal, state and local government web resources and services.